createdAt,value
2023-08-23T00:03:29.416Z,28.50
2023-08-23T00:08:36.741Z,28.49
2023-08-23T00:13:43.710Z,28.48
2023-08-23T00:18:52.482Z,28.49
2023-08-23T00:24:00.115Z,28.48
2023-08-23T00:29:07.412Z,28.48
2023-08-23T00:34:14.800Z,28.47
2023-08-23T00:39:22.122Z,28.47
2023-08-23T00:44:29.430Z,28.46
2023-08-23T00:49:36.974Z,28.46
2023-08-23T00:54:44.528Z,28.46
2023-08-23T00:59:52.090Z,28.45
2023-08-23T01:04:59.473Z,28.45
2023-08-23T01:10:16.518Z,28.45
2023-08-23T01:15:25.202Z,28.45
2023-08-23T01:20:32.672Z,28.45
2023-08-23T01:25:39.842Z,28.44
2023-08-23T01:30:47.451Z,28.44
2023-08-23T01:35:59.332Z,28.43
2023-08-23T01:41:06.573Z,28.44
2023-08-23T01:46:13.789Z,28.43
2023-08-23T01:51:20.850Z,28.43
2023-08-23T01:56:28.384Z,28.42
2023-08-23T02:01:35.623Z,28.42
2023-08-23T02:06:42.657Z,28.42
2023-08-23T02:11:50.155Z,28.41
2023-08-23T02:16:57.493Z,28.42
2023-08-23T02:22:04.881Z,28.41
2023-08-23T02:27:12.015Z,28.42
2023-08-23T02:32:18.999Z,28.41
2023-08-23T02:37:26.230Z,28.40
2023-08-23T02:42:33.732Z,28.40
2023-08-23T02:47:41.463Z,28.40
2023-08-23T02:52:48.925Z,28.39
2023-08-23T02:57:56.470Z,28.39
2023-08-23T03:03:03.642Z,28.39
2023-08-23T03:08:11.035Z,28.39
2023-08-23T03:13:18.293Z,28.38
2023-08-23T03:18:25.707Z,28.38
2023-08-23T03:23:33.432Z,28.38
2023-08-23T03:28:40.843Z,28.37
2023-08-23T03:33:48.445Z,28.37
2023-08-23T03:38:55.696Z,28.37
2023-08-23T03:44:02.872Z,28.37
2023-08-23T03:49:10.132Z,28.36
2023-08-23T03:54:18.076Z,28.35
2023-08-23T03:59:25.323Z,28.36
2023-08-23T04:04:32.996Z,28.35
2023-08-23T04:09:41.926Z,28.35
2023-08-23T04:14:49.444Z,28.35
2023-08-23T04:19:56.581Z,28.35
2023-08-23T04:25:03.860Z,28.35
2023-08-23T04:30:11.951Z,28.34
2023-08-23T04:35:19.200Z,28.34
2023-08-23T04:40:26.609Z,28.34
2023-08-23T04:45:34.096Z,28.34
2023-08-23T04:50:41.390Z,28.34
2023-08-23T04:55:48.676Z,28.34
2023-08-23T05:00:56.326Z,28.33
2023-08-23T05:06:04.280Z,28.33
2023-08-23T05:11:11.811Z,28.32
2023-08-23T05:16:19.273Z,28.32
2023-08-23T05:21:26.628Z,28.32
2023-08-23T05:26:33.900Z,28.32
2023-08-23T05:31:41.210Z,28.30
2023-08-23T05:36:48.460Z,28.31
2023-08-23T05:41:56.198Z,28.31
2023-08-23T05:47:03.316Z,28.31
2023-08-23T05:52:10.470Z,28.30
2023-08-23T05:57:18.092Z,28.30
2023-08-23T06:02:25.362Z,28.30
2023-08-23T06:07:32.803Z,28.30
2023-08-23T06:12:40.049Z,28.30
2023-08-23T06:17:47.437Z,28.28
2023-08-23T06:22:54.980Z,28.29
2023-08-23T06:28:01.875Z,28.29
2023-08-23T06:33:09.891Z,28.29
2023-08-23T06:38:17.561Z,28.28
2023-08-23T06:43:27.922Z,28.29
2023-08-23T06:48:35.179Z,28.30
2023-08-23T06:53:42.472Z,28.29
2023-08-23T06:58:49.399Z,28.30
2023-08-23T07:03:56.942Z,28.31
2023-08-23T07:09:05.375Z,28.32
2023-08-23T07:14:12.840Z,28.35
2023-08-23T07:19:20.003Z,28.36
2023-08-23T07:24:27.200Z,28.40
2023-08-23T07:29:34.332Z,28.42
2023-08-23T07:34:41.528Z,28.42
2023-08-23T07:39:48.993Z,28.44
2023-08-23T07:44:56.738Z,28.46
2023-08-23T07:50:05.279Z,28.50
2023-08-23T07:55:13.134Z,28.52
2023-08-23T08:00:21.853Z,28.54
2023-08-23T08:05:29.162Z,28.57
2023-08-23T08:10:36.625Z,28.57
2023-08-23T08:15:43.963Z,28.60
2023-08-23T08:20:51.672Z,28.61
2023-08-23T08:25:58.992Z,28.63
2023-08-23T08:31:06.469Z,28.64
2023-08-23T08:36:14.109Z,28.66
2023-08-23T08:41:21.514Z,28.67
2023-08-23T08:46:28.724Z,28.68
2023-08-23T08:51:38.634Z,28.69
2023-08-23T08:56:47.492Z,28.68
2023-08-23T09:01:56.624Z,28.70
2023-08-23T09:07:04.183Z,28.71
2023-08-23T09:12:11.967Z,28.72
2023-08-23T09:17:19.251Z,28.73
2023-08-23T09:22:27.001Z,28.71
2023-08-23T09:27:51.504Z,28.72
2023-08-23T09:33:00.005Z,28.75
2023-08-23T09:38:08.112Z,28.75
2023-08-23T09:43:16.110Z,28.76
2023-08-23T09:48:25.464Z,28.76
2023-08-23T09:53:39.379Z,28.75
2023-08-23T09:58:48.481Z,28.75
2023-08-23T10:03:55.871Z,28.75
2023-08-23T10:09:04.927Z,28.75
2023-08-23T10:14:12.416Z,28.72
2023-08-23T10:19:19.911Z,28.71
2023-08-23T10:24:30.462Z,28.70
2023-08-23T10:29:40.364Z,28.70
2023-08-23T10:34:47.946Z,28.69
2023-08-23T10:39:56.152Z,28.68
2023-08-23T10:45:07.912Z,28.68
2023-08-23T10:50:15.297Z,28.68
2023-08-23T10:55:23.211Z,28.68
2023-08-23T11:00:31.655Z,28.68
2023-08-23T11:05:39.090Z,28.67
2023-08-23T11:10:46.464Z,28.66
2023-08-23T11:15:53.929Z,28.66
2023-08-23T11:21:01.891Z,28.66
2023-08-23T11:26:09.101Z,28.65
2023-08-23T11:31:16.447Z,28.64
2023-08-23T11:36:24.311Z,28.64
2023-08-23T11:41:32.078Z,28.63
2023-08-23T11:46:40.880Z,28.64
2023-08-23T11:51:51.471Z,28.63
2023-08-23T11:57:01.184Z,28.63
2023-08-23T12:02:08.795Z,28.62
2023-08-23T12:07:16.212Z,28.62
2023-08-23T12:12:24.153Z,28.61
2023-08-23T12:17:31.841Z,28.61
2023-08-23T12:22:39.340Z,28.62
2023-08-23T12:27:47.057Z,28.62
2023-08-23T12:32:54.581Z,28.61
2023-08-23T12:38:02.012Z,28.60
2023-08-23T12:43:09.984Z,28.59
2023-08-23T12:48:18.088Z,28.60
2023-08-23T12:53:25.549Z,28.59
2023-08-23T12:58:32.637Z,28.59
2023-08-23T13:03:39.538Z,28.59
2023-08-23T13:08:47.080Z,28.58
2023-08-23T13:13:54.726Z,28.58
2023-08-23T13:19:01.919Z,28.59
2023-08-23T13:24:10.711Z,28.58
2023-08-23T13:29:18.014Z,28.57
2023-08-23T13:34:25.513Z,28.58
2023-08-23T13:39:32.861Z,28.59
2023-08-23T13:44:40.201Z,28.58
2023-08-23T13:49:47.476Z,28.81
2023-08-23T13:54:54.546Z,28.91
2023-08-23T14:00:02.008Z,28.93
2023-08-23T14:05:09.929Z,28.96
2023-08-23T14:10:17.283Z,28.98
2023-08-23T14:15:24.191Z,28.99
2023-08-23T14:20:31.230Z,29.01
2023-08-23T14:25:38.348Z,29.01
2023-08-23T14:30:45.918Z,29.02
2023-08-23T14:35:53.214Z,29.03
2023-08-23T14:41:00.749Z,29.04
2023-08-23T14:46:08.254Z,29.04
2023-08-23T14:51:15.521Z,29.05
2023-08-23T14:56:22.523Z,29.06
2023-08-23T15:01:29.956Z,29.06
2023-08-23T15:06:37.318Z,29.06
2023-08-23T15:11:44.813Z,29.06
2023-08-23T15:16:52.229Z,29.08
2023-08-23T15:21:59.998Z,29.07
2023-08-23T15:27:07.668Z,29.08
2023-08-23T15:32:15.081Z,29.08
2023-08-23T15:37:23.073Z,29.08
2023-08-23T15:42:30.543Z,29.09
2023-08-23T15:47:37.834Z,29.08
2023-08-23T15:52:45.463Z,29.09
2023-08-23T15:57:52.983Z,29.09
2023-08-23T16:03:00.585Z,29.09
2023-08-23T16:08:08.905Z,29.09
2023-08-23T16:13:16.074Z,29.09
2023-08-23T16:18:23.469Z,29.09
2023-08-23T16:23:30.715Z,29.09
2023-08-23T16:28:37.981Z,29.08
2023-08-23T16:33:45.303Z,29.09
2023-08-23T16:38:52.788Z,29.08
2023-08-23T16:44:00.117Z,29.08
2023-08-23T16:49:07.525Z,29.09
2023-08-23T16:54:14.730Z,29.08
2023-08-23T16:59:21.968Z,29.08
2023-08-23T17:04:31.191Z,29.08
2023-08-23T17:09:39.000Z,29.07
2023-08-23T17:14:46.235Z,29.08
2023-08-23T17:19:53.760Z,29.07
2023-08-23T17:25:01.721Z,29.07
2023-08-23T17:30:10.195Z,29.07
2023-08-23T17:35:17.815Z,29.07
2023-08-23T17:40:25.410Z,29.07
2023-08-23T17:45:32.732Z,29.07
2023-08-23T17:50:39.941Z,29.06
2023-08-23T17:55:47.391Z,29.06
2023-08-23T18:00:54.817Z,29.05
2023-08-23T18:06:02.464Z,29.05
2023-08-23T18:11:10.164Z,29.05
2023-08-23T18:16:17.500Z,29.04
2023-08-23T18:21:27.246Z,29.04
2023-08-23T18:26:35.175Z,29.04
2023-08-23T18:31:42.554Z,29.04
2023-08-23T18:36:50.025Z,29.03
2023-08-23T18:41:57.121Z,29.03
2023-08-23T18:47:04.753Z,29.03
2023-08-23T18:52:12.141Z,29.02
2023-08-23T18:57:19.738Z,29.02
2023-08-23T19:02:27.255Z,29.02
2023-08-23T19:07:36.304Z,29.01
2023-08-23T19:12:43.230Z,29.02
2023-08-23T19:17:54.184Z,29.01
2023-08-23T19:23:01.462Z,29.01
2023-08-23T19:28:08.821Z,29.00
2023-08-23T19:33:16.019Z,29.00
2023-08-23T19:38:23.290Z,29.00
2023-08-23T19:43:30.580Z,28.99
2023-08-23T19:48:38.433Z,28.99
2023-08-23T19:53:45.652Z,28.99
2023-08-23T19:58:53.030Z,28.99
2023-08-23T20:04:00.481Z,28.98
2023-08-23T20:09:08.001Z,28.98
2023-08-23T20:14:15.359Z,28.98
2023-08-23T20:19:22.842Z,28.97
2023-08-23T20:24:30.111Z,28.98
2023-08-23T20:29:37.870Z,28.97
2023-08-23T20:34:45.312Z,28.97
2023-08-23T20:39:52.761Z,28.96
2023-08-23T20:45:00.095Z,28.96
2023-08-23T20:50:08.082Z,28.95
2023-08-23T20:55:15.400Z,28.95
2023-08-23T21:00:22.855Z,28.95
2023-08-23T21:05:32.223Z,28.94
2023-08-23T21:10:42.430Z,28.94
2023-08-23T21:15:50.620Z,28.94
2023-08-23T21:20:58.053Z,28.93
2023-08-23T21:26:05.490Z,28.93
2023-08-23T21:31:12.851Z,28.93
2023-08-23T21:36:20.636Z,28.93
2023-08-23T21:41:28.074Z,28.93
2023-08-23T21:46:35.666Z,28.92
2023-08-23T21:51:42.847Z,28.92
2023-08-23T21:56:50.497Z,28.92
2023-08-23T22:01:57.981Z,28.91
2023-08-23T22:07:05.257Z,28.91
2023-08-23T22:12:12.647Z,28.90
2023-08-23T22:17:20.078Z,28.90
2023-08-23T22:22:27.615Z,28.90
2023-08-23T22:27:35.090Z,28.90
2023-08-23T22:32:42.272Z,28.90
2023-08-23T22:37:52.235Z,28.89
2023-08-23T22:42:59.464Z,28.89
2023-08-23T22:48:07.290Z,28.89
2023-08-23T22:53:14.586Z,28.88
2023-08-23T22:58:21.994Z,28.88
2023-08-23T23:03:29.589Z,28.87
2023-08-23T23:08:38.301Z,28.87
2023-08-23T23:13:45.680Z,28.87
2023-08-23T23:18:52.872Z,28.87
2023-08-23T23:24:00.212Z,28.86
2023-08-23T23:29:07.522Z,28.86
2023-08-23T23:34:15.283Z,28.86
2023-08-23T23:39:23.574Z,28.85
2023-08-23T23:44:30.871Z,28.85
2023-08-23T23:49:38.442Z,28.85
2023-08-23T23:54:45.763Z,28.84
2023-08-23T23:59:53.173Z,28.83
